Worland Airport

About
Name: Worland Airport
Identifier:  WRL/KWRL
Local Time:  22. Aug 23:42 MDT
Location
Flights per Day
0 flights
Distance: 210km (130mi)
Punctuality
0% (0 flights per day delayed)
Delay Average: 23 minutes
Current Weather
 20 C (Humidity: 52%)
  6kt (11km/h / 6mph) from 330°
  16km (10 mi.)
 
 METAR KWRL 230453Z AUTO 33006KT 10SM CLR 20/10 A2987 RMK AO2 SLP067 T02000100

Current Flights

Departures
Number Departure To Airline
Arrivals
Number Arrival From Airline

Current Delays

Departures
N/A
Arrivals
N/A

Destinations

Top Destinations
Airport Flights
per week
Seats
per week
  Billings (BIL) 0 - 0 0
  Cody (COD) 0 - 0 0

Airlines & Planes

Top Airlines
Airline Flights
per Day
Seats
per Day
Nordwind Airlines 0 -
  Novair 0 -
Top Plane Types
Model Flights Seats
Piper PA28-181 0.1/day - 0
Beech E90 King Air 0.0/day - 0